createdAt,value
2022-09-28T00:00:35.497Z,8.12
2022-09-28T00:01:35.580Z,8.16
2022-09-28T00:02:35.685Z,8.19
2022-09-28T00:03:35.547Z,8.19
2022-09-28T00:04:35.552Z,8.18
2022-09-28T00:05:35.562Z,8.18
2022-09-28T00:06:35.579Z,8.18
2022-09-28T00:07:35.590Z,8.18
2022-09-28T00:08:35.628Z,8.20
2022-09-28T00:09:35.618Z,8.24
2022-09-28T00:10:35.634Z,8.27
2022-09-28T00:11:35.646Z,8.30
2022-09-28T00:12:35.663Z,8.33
2022-09-28T00:13:35.695Z,8.37
2022-09-28T00:14:35.694Z,8.38
2022-09-28T00:15:35.709Z,8.38
2022-09-28T00:16:35.769Z,8.42
2022-09-28T00:17:35.736Z,8.46
2022-09-28T00:18:35.773Z,8.48
2022-09-28T00:19:35.765Z,8.49
2022-09-28T00:20:35.781Z,8.51
2022-09-28T00:21:35.797Z,8.51
2022-09-28T00:22:35.814Z,8.49
2022-09-28T00:23:35.844Z,8.49
2022-09-28T00:24:35.845Z,8.52
2022-09-28T00:25:35.858Z,8.51
2022-09-28T00:26:35.876Z,8.53
2022-09-28T00:27:35.889Z,8.53
2022-09-28T00:28:35.925Z,8.56
2022-09-28T00:29:35.917Z,8.56
2022-09-28T00:30:35.933Z,8.58
2022-09-28T00:31:35.976Z,8.60
2022-09-28T00:32:35.964Z,8.58
2022-09-28T00:33:35.997Z,8.58
2022-09-28T00:34:35.997Z,8.60
2022-09-28T00:35:36.009Z,8.58
2022-09-28T00:36:36.025Z,8.60
2022-09-28T00:37:36.038Z,8.61
2022-09-28T00:38:36.075Z,8.63
2022-09-28T00:39:36.066Z,8.63
2022-09-28T00:40:36.140Z,8.63
2022-09-28T00:41:36.091Z,8.66
2022-09-28T00:42:36.112Z,8.66
2022-09-28T00:43:36.139Z,8.67
2022-09-28T00:44:36.150Z,8.67
2022-09-28T00:45:36.223Z,8.69
2022-09-28T00:46:36.174Z,8.71
2022-09-28T00:47:36.184Z,8.69
2022-09-28T00:48:36.226Z,8.70
2022-09-28T00:49:36.217Z,8.70
2022-09-28T00:50:36.240Z,8.70
2022-09-28T00:51:36.245Z,8.71
2022-09-28T00:52:36.264Z,8.73
2022-09-28T00:53:36.290Z,8.74
2022-09-28T00:54:36.343Z,8.73
2022-09-28T00:55:36.305Z,8.74
2022-09-28T00:56:36.320Z,8.74
2022-09-28T00:57:36.334Z,8.76
2022-09-28T00:58:36.371Z,8.76
2022-09-28T00:59:36.364Z,8.73
2022-09-28T01:00:36.473Z,8.73
2022-09-28T01:01:36.393Z,8.76
2022-09-28T01:02:36.411Z,8.76
2022-09-28T01:03:36.447Z,8.78
2022-09-28T01:04:36.441Z,8.74
2022-09-28T01:05:36.454Z,8.78
2022-09-28T01:06:36.472Z,8.79
2022-09-28T01:07:36.483Z,8.78
2022-09-28T01:08:36.523Z,8.78
2022-09-28T01:09:36.512Z,8.76
2022-09-28T01:10:36.533Z,8.79
2022-09-28T01:11:36.541Z,8.81
2022-09-28T01:12:36.558Z,8.78
2022-09-28T01:13:36.591Z,8.78
2022-09-28T01:14:36.589Z,8.79
2022-09-28T01:15:36.600Z,8.76
2022-09-28T01:16:36.681Z,8.78
2022-09-28T01:17:36.628Z,8.76
2022-09-28T01:18:36.677Z,8.78
2022-09-28T01:19:36.659Z,8.78
2022-09-28T01:20:36.674Z,8.78
2022-09-28T01:21:36.685Z,8.79
2022-09-28T01:22:36.702Z,8.79
2022-09-28T01:23:36.735Z,8.78
2022-09-28T01:24:36.735Z,8.79
2022-09-28T01:25:36.748Z,8.81
2022-09-28T01:26:36.765Z,8.82
2022-09-28T01:27:36.777Z,8.82
2022-09-28T01:28:36.843Z,8.81
2022-09-28T01:29:36.800Z,8.82
2022-09-28T01:30:36.819Z,8.81
2022-09-28T01:31:36.901Z,8.79
2022-09-28T01:32:36.852Z,8.78
2022-09-28T01:33:36.883Z,8.76
2022-09-28T01:34:36.883Z,8.76
2022-09-28T01:35:36.895Z,8.74
2022-09-28T01:36:36.917Z,8.74
2022-09-28T01:37:36.925Z,8.74
2022-09-28T01:38:36.960Z,8.76
2022-09-28T01:39:36.954Z,8.76
2022-09-28T01:40:37.024Z,8.73
2022-09-28T01:41:36.986Z,8.74
2022-09-28T01:42:37.003Z,8.76
2022-09-28T01:43:37.035Z,8.74
2022-09-28T01:44:37.035Z,8.71
2022-09-28T01:45:37.092Z,8.71
2022-09-28T01:46:37.073Z,8.74
2022-09-28T01:47:37.088Z,8.73
2022-09-28T01:48:37.121Z,8.74
2022-09-28T01:49:37.110Z,8.73
2022-09-28T01:50:37.126Z,8.70
2022-09-28T01:51:37.139Z,8.70
2022-09-28T01:52:37.157Z,8.70
2022-09-28T01:53:37.194Z,8.70
2022-09-28T01:54:37.191Z,8.69
2022-09-28T01:55:37.209Z,8.69
2022-09-28T01:56:37.221Z,8.64
2022-09-28T01:57:37.238Z,8.64
2022-09-28T01:58:43.273Z,8.61
2022-09-28T01:59:37.277Z,8.63
2022-09-28T02:00:37.352Z,8.61
2022-09-28T02:01:37.301Z,8.64
2022-09-28T02:02:37.317Z,8.63
2022-09-28T02:03:37.333Z,8.61
2022-09-28T02:04:37.371Z,8.64
2022-09-28T02:05:37.367Z,8.61
2022-09-28T02:06:37.379Z,8.58
2022-09-28T02:07:37.405Z,8.56
2022-09-28T02:08:37.406Z,8.55
2022-09-28T02:09:37.440Z,8.56
2022-09-28T02:10:37.494Z,8.53
2022-09-28T02:11:37.456Z,8.53
2022-09-28T02:12:37.470Z,8.49
2022-09-28T02:13:37.489Z,8.46
2022-09-28T02:14:37.515Z,8.42
2022-09-28T02:15:37.516Z,8.38
2022-09-28T02:16:37.589Z,8.41
2022-09-28T02:17:37.551Z,8.38
2022-09-28T02:18:37.566Z,8.37
2022-09-28T02:19:37.598Z,8.37
2022-09-28T02:20:37.599Z,8.36
2022-09-28T02:21:37.611Z,8.33
2022-09-28T02:22:37.629Z,8.37
2022-09-28T02:23:37.640Z,8.37
2022-09-28T02:24:37.675Z,8.38
2022-09-28T02:25:37.668Z,8.37
2022-09-28T02:26:37.686Z,8.37
2022-09-28T02:27:37.697Z,8.37
2022-09-28T02:28:37.717Z,8.36
2022-09-28T02:29:37.749Z,8.36
2022-09-28T02:30:37.750Z,8.34
2022-09-28T02:31:37.882Z,8.34
2022-09-28T02:32:37.782Z,8.33
2022-09-28T02:33:37.815Z,8.31
2022-09-28T02:34:37.815Z,8.30
2022-09-28T02:35:37.830Z,8.30
2022-09-28T02:36:37.847Z,8.30
2022-09-28T02:37:37.864Z,8.23
2022-09-28T02:38:37.899Z,8.26
2022-09-28T02:39:37.894Z,8.27
2022-09-28T02:40:38.090Z,8.27
2022-09-28T02:41:37.922Z,8.28
2022-09-28T02:42:37.938Z,8.27
2022-09-28T02:43:37.971Z,8.26
2022-09-28T02:44:37.975Z,8.23
2022-09-28T02:45:38.004Z,8.24
2022-09-28T02:46:38.011Z,8.23
2022-09-28T02:47:38.017Z,8.18
2022-09-28T02:48:52.259Z,8.12
2022-09-28T02:49:38.049Z,8.15
2022-09-28T02:50:38.066Z,8.16
2022-09-28T02:51:38.078Z,8.19
2022-09-28T02:52:38.098Z,8.19
2022-09-28T02:53:38.139Z,8.19
2022-09-28T02:54:38.123Z,8.23
2022-09-28T02:55:38.136Z,8.26
2022-09-28T02:56:38.151Z,8.26
2022-09-28T02:57:38.162Z,8.28
2022-09-28T02:58:38.203Z,8.24
2022-09-28T02:59:38.193Z,8.27
2022-09-28T03:00:38.247Z,8.31
2022-09-28T03:01:38.326Z,8.31
2022-09-28T03:02:38.239Z,8.33
2022-09-28T03:03:38.269Z,8.31
2022-09-28T03:04:38.268Z,8.37
2022-09-28T03:05:38.280Z,8.38
2022-09-28T03:06:38.293Z,8.42
2022-09-28T03:07:38.304Z,8.44
2022-09-28T03:08:38.338Z,8.45
2022-09-28T03:09:38.332Z,8.48
2022-09-28T03:10:38.347Z,8.45
2022-09-28T03:11:38.360Z,8.46
2022-09-28T03:12:38.378Z,8.46
2022-09-28T03:13:38.389Z,8.48
2022-09-28T03:14:38.405Z,8.49
2022-09-28T03:15:38.418Z,8.49
2022-09-28T03:16:38.489Z,8.51
2022-09-28T03:17:38.446Z,8.51
2022-09-28T03:18:38.471Z,8.53
2022-09-28T03:19:38.484Z,8.55
2022-09-28T03:20:38.497Z,8.55
2022-09-28T03:21:38.511Z,8.55
2022-09-28T03:22:38.528Z,8.55
2022-09-28T03:23:38.554Z,8.55
2022-09-28T03:24:38.558Z,8.58
2022-09-28T03:25:38.571Z,8.60
2022-09-28T03:26:38.595Z,8.60
2022-09-28T03:27:38.602Z,8.61
2022-09-28T03:28:38.619Z,8.61
2022-09-28T03:29:38.629Z,8.63
2022-09-28T03:30:38.646Z,8.60
2022-09-28T03:31:38.679Z,8.58
2022-09-28T03:32:38.678Z,8.58
2022-09-28T03:33:38.692Z,8.56
2022-09-28T03:34:38.709Z,8.58
2022-09-28T03:35:38.716Z,8.60
2022-09-28T03:36:38.731Z,8.61
2022-09-28T03:37:38.742Z,8.61
2022-09-28T03:38:38.762Z,8.63
2022-09-28T03:39:38.774Z,8.61
2022-09-28T03:40:38.862Z,8.63
2022-09-28T03:41:38.806Z,8.64
2022-09-28T03:42:38.825Z,8.63
2022-09-28T03:43:38.839Z,8.64
2022-09-28T03:44:38.853Z,8.64
2022-09-28T03:45:38.908Z,8.66
2022-09-28T03:46:38.894Z,8.66
2022-09-28T03:47:38.898Z,8.66
2022-09-28T03:48:38.919Z,8.66
2022-09-28T03:49:38.942Z,8.67
2022-09-28T03:50:38.947Z,8.66
2022-09-28T03:51:38.961Z,8.67
2022-09-28T03:52:38.978Z,8.66
2022-09-28T03:53:38.989Z,8.67
2022-09-28T03:54:39.006Z,8.69
2022-09-28T03:55:39.015Z,8.70
2022-09-28T03:56:39.042Z,8.71
2022-09-28T03:57:39.053Z,8.70
2022-09-28T03:58:39.088Z,8.70
2022-09-28T03:59:39.084Z,8.70
2022-09-28T04:00:39.208Z,8.69
2022-09-28T04:01:39.262Z,8.64
2022-09-28T04:02:39.206Z,8.64
2022-09-28T04:03:39.164Z,8.66
2022-09-28T04:04:39.167Z,8.66
2022-09-28T04:05:39.174Z,8.66
2022-09-28T04:06:39.192Z,8.64
2022-09-28T04:07:39.205Z,8.64
2022-09-28T04:08:39.244Z,8.64
2022-09-28T04:09:39.234Z,8.63
2022-09-28T04:10:39.254Z,8.63
2022-09-28T04:12:02.347Z,8.63
2022-09-28T04:12:39.290Z,8.64
2022-09-28T04:13:39.311Z,8.64
2022-09-28T04:14:39.311Z,8.66
2022-09-28T04:15:39.323Z,8.67
2022-09-28T04:16:39.373Z,8.66
2022-09-28T04:17:40.321Z,8.66
2022-09-28T04:18:39.390Z,8.67
2022-09-28T04:19:39.386Z,8.67
2022-09-28T04:20:39.404Z,8.67
2022-09-28T04:21:39.411Z,8.69
2022-09-28T04:22:39.433Z,8.67
2022-09-28T04:23:39.461Z,8.66
2022-09-28T04:24:39.467Z,8.63
2022-09-28T04:25:39.481Z,8.64
2022-09-28T04:26:39.494Z,8.64
2022-09-28T04:27:39.505Z,8.63
2022-09-28T04:28:39.544Z,8.64
2022-09-28T04:29:39.539Z,8.61
2022-09-28T04:30:39.555Z,8.63
2022-09-28T04:31:39.627Z,8.63
2022-09-28T04:32:39.582Z,8.61
2022-09-28T04:33:39.624Z,8.60
2022-09-28T04:34:43.256Z,8.61
2022-09-28T04:35:39.618Z,8.61
2022-09-28T04:36:39.637Z,8.60
2022-09-28T04:37:39.652Z,8.64
2022-09-28T04:38:52.684Z,8.67
2022-09-28T04:39:39.686Z,8.69
2022-09-28T04:40:39.756Z,8.73
2022-09-28T04:41:39.715Z,8.71
2022-09-28T04:42:39.734Z,8.73
2022-09-28T04:43:39.776Z,8.73
2022-09-28T04:44:39.764Z,8.71
2022-09-28T04:45:39.857Z,8.73
2022-09-28T04:46:39.796Z,8.74
2022-09-28T04:47:39.806Z,8.71
2022-09-28T04:48:39.853Z,8.71
2022-09-28T04:49:39.838Z,8.71
2022-09-28T04:50:39.854Z,8.70
2022-09-28T04:51:39.867Z,8.70
2022-09-28T04:52:39.887Z,8.70
2022-09-28T04:53:39.915Z,8.70
2022-09-28T04:54:39.917Z,8.70
2022-09-28T04:55:39.945Z,8.70
2022-09-28T04:56:39.950Z,8.73
2022-09-28T04:57:39.964Z,8.73
2022-09-28T04:58:40.010Z,8.73
2022-09-28T04:59:39.990Z,8.70
2022-09-28T05:00:40.008Z,8.71
2022-09-28T05:01:40.098Z,8.71
2022-09-28T05:02:40.133Z,8.71
2022-09-28T05:03:40.080Z,8.71
2022-09-28T05:04:40.070Z,8.71
2022-09-28T05:05:40.087Z,8.71
2022-09-28T05:06:40.100Z,8.71
2022-09-28T05:07:40.115Z,8.74
2022-09-28T05:08:40.156Z,8.76
2022-09-28T05:09:40.138Z,8.76
2022-09-28T05:10:40.155Z,8.76
2022-09-28T05:11:40.170Z,8.78
2022-09-28T05:12:40.185Z,8.78
2022-09-28T05:13:40.233Z,8.78
2022-09-28T05:14:40.220Z,8.78
2022-09-28T05:15:40.232Z,8.81
2022-09-28T05:16:40.315Z,8.79
2022-09-28T05:17:40.258Z,8.81
2022-09-28T05:18:40.295Z,8.81
2022-09-28T05:19:40.289Z,8.81
2022-09-28T05:20:40.309Z,8.82
2022-09-28T05:21:40.318Z,8.81
2022-09-28T05:22:40.336Z,8.79
2022-09-28T05:23:40.365Z,8.81
2022-09-28T05:24:40.368Z,8.82
2022-09-28T05:25:40.379Z,8.81
2022-09-28T05:26:40.399Z,8.81
2022-09-28T05:27:40.409Z,8.79
2022-09-28T05:28:40.455Z,8.79
2022-09-28T05:29:40.437Z,8.79
2022-09-28T05:30:40.455Z,8.81
2022-09-28T05:31:40.589Z,8.82
2022-09-28T05:32:40.487Z,8.81
2022-09-28T05:33:40.520Z,8.84
2022-09-28T05:34:40.518Z,8.85
2022-09-28T05:35:40.531Z,8.88
2022-09-28T05:36:40.548Z,8.85
2022-09-28T05:37:40.561Z,8.87
2022-09-28T05:38:40.601Z,8.87
2022-09-28T05:39:40.584Z,8.87
2022-09-28T05:40:40.639Z,8.87
2022-09-28T05:41:40.616Z,8.88
2022-09-28T05:42:40.631Z,8.88
2022-09-28T05:43:40.671Z,8.89
2022-09-28T05:44:40.662Z,8.89
2022-09-28T05:45:40.700Z,8.91
2022-09-28T05:46:40.688Z,8.89
2022-09-28T05:47:40.699Z,8.89
2022-09-28T05:48:40.746Z,8.88
2022-09-28T05:49:40.727Z,8.89
2022-09-28T05:50:40.740Z,8.89
2022-09-28T05:51:40.753Z,8.91
2022-09-28T05:52:40.769Z,8.89
2022-09-28T05:53:40.802Z,8.89
2022-09-28T05:54:40.802Z,8.89
2022-09-28T05:55:40.811Z,8.91
2022-09-28T05:56:40.838Z,8.92
2022-09-28T05:57:40.847Z,8.92
2022-09-28T05:58:40.892Z,8.91
2022-09-28T05:59:40.875Z,8.92
2022-09-28T06:00:40.891Z,8.89
2022-09-28T06:01:40.984Z,8.92
2022-09-28T06:02:41.016Z,8.92
2022-09-28T06:03:40.954Z,8.92
2022-09-28T06:04:40.953Z,8.94
2022-09-28T06:05:40.964Z,8.94
2022-09-28T06:06:40.982Z,8.92
2022-09-28T06:07:40.994Z,8.94
2022-09-28T06:08:41.032Z,8.95
2022-09-28T06:09:41.027Z,8.95
2022-09-28T06:10:41.049Z,8.99
2022-09-28T06:11:41.056Z,8.97
2022-09-28T06:12:41.073Z,8.99
2022-09-28T06:13:41.124Z,8.99
2022-09-28T06:14:41.108Z,8.99
2022-09-28T06:15:41.122Z,9.00
2022-09-28T06:16:43.844Z,9.00
2022-09-28T06:17:41.150Z,9.00
2022-09-28T06:18:41.192Z,9.00
2022-09-28T06:19:41.181Z,9.00
2022-09-28T06:20:41.196Z,9.03
2022-09-28T06:21:41.208Z,9.03
2022-09-28T06:22:41.225Z,9.02
2022-09-28T06:23:44.549Z,9.03
2022-09-28T06:24:41.262Z,9.02
2022-09-28T06:25:41.274Z,9.02
2022-09-28T06:26:41.288Z,9.00
2022-09-28T06:27:41.299Z,9.04
2022-09-28T06:28:41.347Z,9.03
2022-09-28T06:29:41.330Z,9.04
2022-09-28T06:30:41.475Z,9.06
2022-09-28T06:31:41.358Z,9.08
2022-09-28T06:32:41.378Z,9.10
2022-09-28T06:33:41.408Z,9.10
2022-09-28T06:34:41.408Z,9.11
2022-09-28T06:35:41.426Z,9.10
2022-09-28T06:36:41.434Z,9.08
2022-09-28T06:37:41.452Z,9.04
2022-09-28T06:38:41.484Z,9.10
2022-09-28T06:39:41.486Z,9.10
2022-09-28T06:40:41.617Z,9.10
2022-09-28T06:41:42.538Z,9.10
2022-09-28T06:42:41.524Z,9.08
2022-09-28T06:43:41.560Z,9.06
2022-09-28T06:44:41.554Z,9.08
2022-09-28T06:45:41.631Z,9.10
2022-09-28T06:46:41.584Z,9.10
2022-09-28T06:47:41.606Z,9.11
2022-09-28T06:48:41.637Z,9.14
2022-09-28T06:49:41.673Z,9.13
2022-09-28T06:50:41.651Z,9.13
2022-09-28T06:51:41.669Z,9.14
2022-09-28T06:52:41.682Z,9.16
2022-09-28T06:53:41.721Z,9.14
2022-09-28T06:54:41.714Z,9.13
2022-09-28T06:55:41.733Z,9.13
2022-09-28T06:56:41.740Z,9.18
2022-09-28T06:57:41.758Z,9.14
2022-09-28T06:58:41.789Z,9.13
2022-09-28T06:59:41.815Z,9.14
2022-09-28T07:00:41.800Z,9.16
2022-09-28T07:01:41.903Z,9.13
2022-09-28T07:02:41.928Z,9.14
2022-09-28T07:03:41.868Z,9.18
2022-09-28T07:04:41.862Z,9.16
2022-09-28T07:05:41.879Z,9.16
2022-09-28T07:06:41.893Z,9.18
2022-09-28T07:07:41.911Z,9.18
2022-09-28T07:08:41.944Z,9.19
2022-09-28T07:09:46.498Z,9.21
2022-09-28T07:10:41.960Z,9.21
2022-09-28T07:11:41.981Z,9.21
2022-09-28T07:12:41.980Z,9.22
2022-09-28T07:13:50.555Z,9.23
2022-09-28T07:14:47.900Z,9.25
2022-09-28T07:15:42.036Z,9.25
2022-09-28T07:17:10.033Z,9.25
2022-09-28T07:17:56.749Z,9.25
2022-09-28T07:18:42.099Z,9.25
2022-09-28T07:19:42.089Z,9.25
2022-09-28T07:20:53.146Z,9.23
2022-09-28T07:21:42.179Z,9.22
2022-09-28T07:22:43.851Z,9.22
2022-09-28T07:23:51.818Z,9.21
2022-09-28T07:24:42.164Z,9.16
2022-09-28T07:25:42.175Z,9.16
2022-09-28T07:26:42.189Z,9.11
2022-09-28T07:27:42.225Z,9.13
2022-09-28T07:28:42.239Z,9.13
2022-09-28T07:29:42.238Z,-39.78
2022-09-28T07:30:42.355Z,-39.78
2022-09-28T07:31:42.273Z,-39.78
2022-09-28T07:32:42.287Z,-39.78
2022-09-28T07:33:42.325Z,-39.78
2022-09-28T07:34:42.317Z,-39.78
2022-09-28T07:35:42.341Z,-39.78
2022-09-28T07:36:42.350Z,-39.78
2022-09-28T07:37:42.371Z,-39.78
2022-09-28T07:38:42.403Z,-39.78
2022-09-28T07:39:42.409Z,-39.78
2022-09-28T07:40:47.655Z,-39.78
2022-09-28T07:41:42.434Z,-39.78
2022-09-28T07:42:42.443Z,-39.78
2022-09-28T07:43:42.480Z,-39.78
2022-09-28T07:44:42.471Z,-39.78
2022-09-28T07:45:42.526Z,-39.78
2022-09-28T07:46:42.504Z,-39.78
2022-09-28T07:47:42.525Z,-39.78
2022-09-28T07:48:42.557Z,-39.78
2022-09-28T07:49:42.563Z,-39.78
2022-09-28T07:50:42.580Z,-39.78
2022-09-28T07:51:42.603Z,-39.78
2022-09-28T07:52:42.619Z,-39.78
2022-09-28T07:53:42.658Z,-39.78
2022-09-28T07:54:42.652Z,-39.78
2022-09-28T07:55:42.675Z,-39.78
2022-09-28T07:56:42.682Z,-39.78
2022-09-28T07:57:42.701Z,-39.78
2022-09-28T07:58:48.733Z,-39.78
2022-09-28T07:59:42.737Z,-39.78
2022-09-28T08:00:42.756Z,-39.78
2022-09-28T08:01:42.831Z,-39.78
2022-09-28T08:02:42.895Z,-39.78
2022-09-28T08:03:42.826Z,-39.78
2022-09-28T08:04:42.818Z,-39.78
2022-09-28T08:05:42.844Z,-39.78
2022-09-28T08:06:42.845Z,-39.78
2022-09-28T08:07:42.863Z,-39.78
2022-09-28T08:08:42.894Z,-39.78
2022-09-28T08:09:42.902Z,-39.78
2022-09-28T08:10:46.581Z,-39.78
2022-09-28T08:11:42.939Z,-39.78
2022-09-28T08:12:42.955Z,-39.78
2022-09-28T08:13:42.991Z,-39.78
2022-09-28T08:14:42.983Z,-39.78
2022-09-28T08:15:43.003Z,-39.78
2022-09-28T08:16:43.019Z,-39.78
2022-09-28T08:17:43.038Z,-39.78
2022-09-28T08:18:43.068Z,-39.78
2022-09-28T08:19:43.072Z,-39.78
2022-09-28T08:20:43.088Z,-39.78
2022-09-28T08:21:43.110Z,-39.78
2022-09-28T08:22:43.125Z,-39.78
2022-09-28T08:23:43.188Z,-39.78
2022-09-28T08:24:43.160Z,-39.78
2022-09-28T08:25:43.187Z,-39.78
2022-09-28T08:26:43.190Z,-39.78
2022-09-28T08:27:43.212Z,-39.78
2022-09-28T08:28:43.249Z,-39.78
2022-09-28T08:29:43.255Z,-39.78
2022-09-28T08:30:43.303Z,-39.78
2022-09-28T08:31:43.282Z,-39.78
2022-09-28T08:32:43.297Z,-39.78
2022-09-28T08:33:43.337Z,-39.78
2022-09-28T08:34:43.331Z,-39.78
2022-09-28T08:35:43.349Z,-39.78
2022-09-28T08:36:43.367Z,-39.78
2022-09-28T08:37:47.285Z,-39.78
2022-09-28T08:38:43.423Z,-39.78
2022-09-28T08:39:43.414Z,-39.78
2022-09-28T08:40:43.457Z,-39.78
2022-09-28T08:41:43.447Z,-39.78
2022-09-28T08:42:43.462Z,-39.78
2022-09-28T08:43:43.499Z,-39.78
2022-09-28T08:45:43.527Z,-39.78
2022-09-28T08:46:43.533Z,-39.78
2022-09-28T08:47:43.548Z,-39.78
2022-09-28T08:48:45.709Z,-39.78
2022-09-28T08:49:43.617Z,-39.78
2022-09-28T08:50:43.595Z,-39.78
2022-09-28T08:51:43.616Z,-39.78
2022-09-28T08:52:43.637Z,-39.78
2022-09-28T08:53:43.656Z,-39.78
2022-09-28T08:54:43.671Z,-39.78
2022-09-28T08:55:43.683Z,-39.78
2022-09-28T08:56:43.699Z,-39.78
2022-09-28T08:57:43.721Z,-39.78
2022-09-28T08:58:43.739Z,-39.78
2022-09-28T08:59:43.767Z,-39.78
2022-09-28T09:00:43.772Z,-39.78
2022-09-28T09:01:43.837Z,-39.78
2022-09-28T09:02:43.967Z,-39.78
2022-09-28T09:03:43.831Z,-39.78
2022-09-28T09:04:43.850Z,-39.78
2022-09-28T09:05:43.872Z,-39.78
2022-09-28T09:06:43.889Z,-39.78
2022-09-28T09:07:43.906Z,-39.78
2022-09-28T09:08:43.938Z,-39.78
2022-09-28T09:09:43.942Z,-39.78
2022-09-28T09:10:43.957Z,-39.78
2022-09-28T09:11:43.977Z,-39.78
2022-09-28T09:12:44.141Z,-39.78
2022-09-28T09:13:44.030Z,-39.78
2022-09-28T09:14:44.020Z,-39.78
2022-09-28T09:15:44.040Z,-39.78
2022-09-28T09:16:44.126Z,-39.78
2022-09-28T09:17:44.074Z,-39.78
2022-09-28T09:18:44.116Z,-39.78
2022-09-28T09:19:44.108Z,-39.78
2022-09-28T09:20:44.123Z,-39.78
2022-09-28T09:21:44.143Z,-39.78
2022-09-28T09:22:44.157Z,-39.78
2022-09-28T09:23:44.204Z,-39.78
2022-09-28T09:24:44.195Z,-39.78
2022-09-28T09:25:44.214Z,-39.78
2022-09-28T09:26:44.228Z,-39.78
2022-09-28T09:27:44.250Z,-39.78
2022-09-28T09:28:44.282Z,-39.78
2022-09-28T09:29:44.287Z,-39.78
2022-09-28T09:30:44.349Z,-39.78
2022-09-28T09:31:44.319Z,-39.78
2022-09-28T09:32:44.334Z,-39.78
2022-09-28T09:33:44.374Z,-39.78
2022-09-28T09:34:44.367Z,-39.78
2022-09-28T09:35:44.389Z,-39.78
2022-09-28T09:36:44.405Z,-39.78
2022-09-28T09:37:44.425Z,-39.78
2022-09-28T09:38:44.445Z,-39.78
2022-09-28T09:39:44.465Z,-39.78
2022-09-28T09:40:44.515Z,-39.78
2022-09-28T09:41:44.497Z,-39.78
2022-09-28T09:42:44.509Z,-39.78
2022-09-28T09:43:44.548Z,-39.78
2022-09-28T09:44:44.542Z,-39.78
2022-09-28T09:45:44.624Z,-39.78
2022-09-28T09:46:44.577Z,-39.78
2022-09-28T09:47:44.597Z,-39.78
2022-09-28T09:48:44.635Z,-39.78
2022-09-28T09:49:44.636Z,-39.78
2022-09-28T09:50:44.654Z,-39.78
2022-09-28T09:51:44.675Z,-39.78
2022-09-28T09:52:44.689Z,-39.78
2022-09-28T09:53:44.732Z,-39.78
2022-09-28T09:54:44.719Z,-39.78
2022-09-28T09:55:44.767Z,-39.78
2022-09-28T09:56:44.762Z,-39.78
2022-09-28T09:57:44.774Z,-39.78
2022-09-28T09:58:44.807Z,-39.78
2022-09-28T09:59:44.806Z,-39.78
2022-09-28T10:00:44.820Z,-39.78
2022-09-28T10:01:44.897Z,-39.78
2022-09-28T10:02:44.925Z,-39.78
2022-09-28T10:03:44.893Z,-39.78
2022-09-28T10:04:44.884Z,-39.78
2022-09-28T10:05:44.899Z,-39.78
2022-09-28T10:06:44.916Z,-39.78
2022-09-28T10:07:44.938Z,-39.78
2022-09-28T10:08:44.970Z,-39.78
2022-09-28T10:09:44.969Z,-39.78
2022-09-28T10:10:44.983Z,-39.78
2022-09-28T10:11:45.005Z,-39.78
2022-09-28T10:12:45.022Z,-39.78
2022-09-28T10:13:45.062Z,-39.78
2022-09-28T10:14:45.052Z,-39.78
2022-09-28T10:15:45.074Z,-39.78
2022-09-28T10:16:45.177Z,-39.78
2022-09-28T10:17:45.115Z,-39.78
2022-09-28T10:18:45.158Z,-39.78
2022-09-28T10:19:45.152Z,-39.78
2022-09-28T10:20:45.168Z,-39.78
2022-09-28T10:21:45.189Z,-39.78
2022-09-28T10:22:45.205Z,-39.78
2022-09-28T10:23:45.252Z,-39.78
2022-09-28T10:24:45.251Z,-39.78
2022-09-28T10:25:45.263Z,-39.78
2022-09-28T10:26:45.281Z,-39.78
2022-09-28T10:27:45.301Z,-39.78
2022-09-28T10:28:45.339Z,-39.78
2022-09-28T10:29:45.339Z,-39.78
2022-09-28T10:30:45.461Z,-39.78
2022-09-28T10:31:45.377Z,-39.78
2022-09-28T10:32:45.391Z,-39.78
2022-09-28T10:33:45.445Z,-39.78
2022-09-28T10:34:50.179Z,-39.78
2022-09-28T10:35:45.449Z,-39.78
2022-09-28T10:36:45.454Z,-39.78
2022-09-28T10:37:45.477Z,-39.78
2022-09-28T10:38:45.512Z,-39.78
2022-09-28T10:39:45.503Z,-39.78
2022-09-28T10:40:45.628Z,-39.78
2022-09-28T10:41:45.543Z,-39.78
2022-09-28T10:42:45.560Z,-39.78
2022-09-28T10:43:49.765Z,-39.78
2022-09-28T10:44:45.604Z,-39.78
2022-09-28T10:45:45.652Z,-39.78
2022-09-28T10:46:45.626Z,-39.78
2022-09-28T10:47:45.650Z,-39.78
2022-09-28T10:48:45.695Z,-39.78
2022-09-28T10:49:47.288Z,-39.78
2022-09-28T10:50:45.703Z,-39.78
2022-09-28T10:51:45.719Z,-39.78
2022-09-28T10:52:45.741Z,-39.78
2022-09-28T10:53:45.786Z,-39.78
2022-09-28T10:54:45.778Z,-39.78
2022-09-28T10:55:45.794Z,-39.78
2022-09-28T10:56:45.815Z,-39.78
2022-09-28T10:57:45.830Z,-39.78
2022-09-28T10:58:45.881Z,-39.78
2022-09-28T10:59:45.868Z,-39.78
2022-09-28T11:00:45.893Z,-39.78
2022-09-28T11:01:45.995Z,-39.78
2022-09-28T11:02:46.043Z,-39.78
2022-09-28T11:03:45.966Z,-39.78
2022-09-28T11:04:45.962Z,-39.78
2022-09-28T11:05:45.976Z,-39.78
2022-09-28T11:06:45.997Z,-39.78
2022-09-28T11:07:46.022Z,-39.78
2022-09-28T11:08:46.053Z,-39.78
2022-09-28T11:09:48.490Z,-39.78
2022-09-28T11:10:46.097Z,-39.78
2022-09-28T11:11:46.081Z,-39.78
2022-09-28T11:12:46.101Z,-39.78
2022-09-28T11:13:46.145Z,-39.78
2022-09-28T11:14:46.137Z,-39.78
2022-09-28T11:15:46.154Z,-39.78
2022-09-28T11:16:46.216Z,-39.78
2022-09-28T11:17:46.179Z,-39.78
2022-09-28T11:18:46.229Z,-39.78
2022-09-28T11:19:46.214Z,-39.78
2022-09-28T11:20:46.236Z,-39.78
2022-09-28T11:21:46.252Z,-39.78
2022-09-28T11:22:46.489Z,-39.78
2022-09-28T11:23:46.307Z,-39.78
2022-09-28T11:24:46.306Z,-39.78
2022-09-28T11:25:46.324Z,-39.78
2022-09-28T11:26:46.342Z,-39.78
2022-09-28T11:27:46.359Z,-39.78
2022-09-28T11:28:46.401Z,-39.78
2022-09-28T11:29:46.392Z,-39.78
2022-09-28T11:30:46.492Z,-39.78
2022-09-28T11:31:46.427Z,-39.78
2022-09-28T11:32:46.448Z,-39.78
2022-09-28T11:33:46.482Z,-39.78
2022-09-28T11:34:59.224Z,-39.78
2022-09-28T11:35:46.496Z,-39.78
2022-09-28T11:36:46.513Z,-39.78
2022-09-28T11:37:46.529Z,-39.78
2022-09-28T11:38:46.570Z,-39.78
2022-09-28T11:39:46.560Z,-39.78
2022-09-28T11:40:46.634Z,-39.78
2022-09-28T11:41:46.593Z,-39.78
2022-09-28T11:42:46.616Z,-39.78
2022-09-28T11:43:46.648Z,-39.78
2022-09-28T11:44:46.661Z,-39.78
2022-09-28T11:45:46.707Z,-39.78
2022-09-28T11:46:46.690Z,-39.78
2022-09-28T11:47:46.708Z,-39.78
2022-09-28T11:48:46.757Z,-39.78
2022-09-28T11:49:46.741Z,-39.78
2022-09-28T11:50:46.770Z,-39.78
2022-09-28T11:51:46.779Z,-39.78
2022-09-28T11:52:46.800Z,-39.78
2022-09-28T11:53:46.844Z,-39.78
2022-09-28T11:54:46.836Z,-39.78
2022-09-28T11:55:46.849Z,-39.78
2022-09-28T11:56:46.870Z,-39.78
2022-09-28T11:57:46.885Z,-39.78
2022-09-28T11:58:46.932Z,-39.78
2022-09-28T11:59:46.917Z,-39.78
2022-09-28T12:00:46.940Z,-39.78
2022-09-28T12:01:46.951Z,-39.78
2022-09-28T12:02:47.111Z,-39.78
2022-09-28T12:03:47.062Z,-39.78
2022-09-28T12:04:47.003Z,-39.78
2022-09-28T12:05:47.016Z,-39.78
2022-09-28T12:06:47.037Z,-39.78
2022-09-28T12:07:47.050Z,-39.78
2022-09-28T12:08:47.093Z,-39.78
2022-09-28T12:09:47.081Z,-39.78
2022-09-28T12:10:47.102Z,-39.78
2022-09-28T12:11:47.120Z,-39.78
2022-09-28T12:12:47.143Z,-39.78
2022-09-28T12:13:47.179Z,-39.78
2022-09-28T12:14:47.173Z,-39.78
2022-09-28T12:16:13.288Z,-39.78
2022-09-28T12:17:05.663Z,-39.78
2022-09-28T12:17:47.268Z,-39.78
2022-09-28T12:18:47.329Z,-39.78
2022-09-28T12:19:47.256Z,-39.78
2022-09-28T12:20:47.305Z,-39.78
2022-09-28T12:21:47.290Z,-39.78
2022-09-28T12:22:47.310Z,-39.78
2022-09-28T12:23:47.354Z,-39.78
2022-09-28T12:24:47.350Z,-39.78
2022-09-28T12:25:47.360Z,-39.78
2022-09-28T12:26:47.382Z,-39.78
2022-09-28T12:27:47.397Z,-39.78
2022-09-28T12:28:47.442Z,-39.78
2022-09-28T12:29:47.448Z,-39.78
2022-09-28T12:30:47.452Z,-39.78
2022-09-28T12:31:47.467Z,-39.78
2022-09-28T12:32:47.513Z,-39.78
2022-09-28T12:33:47.537Z,-39.78
2022-09-28T12:34:47.529Z,-39.78
2022-09-28T12:35:47.543Z,-39.78
2022-09-28T12:36:47.565Z,-39.78
2022-09-28T12:37:49.750Z,-39.78
2022-09-28T12:38:54.097Z,-39.78
2022-09-28T12:39:57.398Z,-39.78
2022-09-28T12:40:47.715Z,-39.78
2022-09-28T12:41:47.655Z,-39.78
2022-09-28T12:42:47.673Z,-39.78
2022-09-28T12:43:47.711Z,-39.78
2022-09-28T12:44:47.712Z,-39.78
2022-09-28T12:46:10.456Z,-39.78
2022-09-28T12:46:47.845Z,-39.78
2022-09-28T12:47:47.759Z,-39.78
2022-09-28T12:49:03.063Z,-39.78
2022-09-28T12:50:36.271Z,-39.78
2022-09-28T12:50:56.772Z,-39.78
2022-09-28T12:51:47.833Z,-39.78
2022-09-28T12:52:47.852Z,-39.78
2022-09-28T12:53:47.890Z,-39.78
2022-09-28T12:54:47.891Z,-39.78
2022-09-28T12:55:47.905Z,-39.78
2022-09-28T12:56:47.928Z,-39.78
2022-09-28T12:57:47.946Z,-39.78